sensor_id;sensor_type;location;lat;lon;timestamp;P1;durP1;ratioP1;P2;durP2;ratioP2
7783;SDS011;19359;51.402;6.778;2024-03-07T00:00:01;27.65;;;12.52;;
7783;SDS011;19359;51.402;6.778;2024-03-07T00:02:28;23.40;;;11.68;;
7783;SDS011;19359;51.402;6.778;2024-03-07T00:04:55;31.00;;;13.20;;
7783;SDS011;19359;51.402;6.778;2024-03-07T00:07:22;29.95;;;13.23;;
7783;SDS011;19359;51.402;6.778;2024-03-07T00:09:49;28.67;;;13.25;;
7783;SDS011;19359;51.402;6.778;2024-03-07T00:12:18;25.77;;;13.40;;
7783;SDS011;19359;51.402;6.778;2024-03-07T00:14:46;29.65;;;13.70;;
7783;SDS011;19359;51.402;6.778;2024-03-07T00:17:13;30.60;;;12.63;;
7783;SDS011;19359;51.402;6.778;2024-03-07T00:19:40;30.17;;;13.80;;
7783;SDS011;19359;51.402;6.778;2024-03-07T00:22:07;26.70;;;13.57;;
7783;SDS011;19359;51.402;6.778;2024-03-07T00:24:33;23.88;;;12.65;;
7783;SDS011;19359;51.402;6.778;2024-03-07T00:27:00;27.05;;;12.25;;
7783;SDS011;19359;51.402;6.778;2024-03-07T00:29:27;29.50;;;13.60;;
7783;SDS011;19359;51.402;6.778;2024-03-07T00:31:55;27.70;;;14.05;;
7783;SDS011;19359;51.402;6.778;2024-03-07T00:34:23;34.97;;;13.95;;
7783;SDS011;19359;51.402;6.778;2024-03-07T00:36:50;25.90;;;14.32;;
7783;SDS011;19359;51.402;6.778;2024-03-07T00:39:17;37.58;;;13.77;;
7783;SDS011;19359;51.402;6.778;2024-03-07T00:41:44;26.60;;;13.00;;
7783;SDS011;19359;51.402;6.778;2024-03-07T00:44:12;34.70;;;13.60;;
7783;SDS011;19359;51.402;6.778;2024-03-07T00:46:39;31.80;;;16.10;;
7783;SDS011;19359;51.402;6.778;2024-03-07T00:49:07;28.42;;;14.00;;
7783;SDS011;19359;51.402;6.778;2024-03-07T00:51:34;29.65;;;12.88;;
7783;SDS011;19359;51.402;6.778;2024-03-07T00:54:01;28.00;;;13.80;;
7783;SDS011;19359;51.402;6.778;2024-03-07T00:56:28;30.77;;;14.57;;
7783;SDS011;19359;51.402;6.778;2024-03-07T00:58:54;27.55;;;13.23;;
7783;SDS011;19359;51.402;6.778;2024-03-07T01:01:21;40.58;;;13.98;;
7783;SDS011;19359;51.402;6.778;2024-03-07T01:03:49;32.90;;;14.05;;
7783;SDS011;19359;51.402;6.778;2024-03-07T01:06:17;25.30;;;13.32;;
7783;SDS011;19359;51.402;6.778;2024-03-07T01:08:45;28.33;;;14.57;;
7783;SDS011;19359;51.402;6.778;2024-03-07T01:11:12;30.95;;;14.90;;
7783;SDS011;19359;51.402;6.778;2024-03-07T01:13:39;30.63;;;14.10;;
7783;SDS011;19359;51.402;6.778;2024-03-07T01:16:06;26.98;;;14.23;;
7783;SDS011;19359;51.402;6.778;2024-03-07T01:18:33;24.13;;;11.90;;
7783;SDS011;19359;51.402;6.778;2024-03-07T01:21:01;35.83;;;12.80;;
7783;SDS011;19359;51.402;6.778;2024-03-07T01:23:30;33.45;;;14.07;;
7783;SDS011;19359;51.402;6.778;2024-03-07T01:25:57;29.75;;;13.25;;
7783;SDS011;19359;51.402;6.778;2024-03-07T01:28:25;24.60;;;12.05;;
7783;SDS011;19359;51.402;6.778;2024-03-07T01:30:55;26.23;;;14.20;;
7783;SDS011;19359;51.402;6.778;2024-03-07T01:33:22;26.77;;;12.23;;
7783;SDS011;19359;51.402;6.778;2024-03-07T01:35:49;27.60;;;13.07;;
7783;SDS011;19359;51.402;6.778;2024-03-07T01:38:17;33.75;;;14.35;;
7783;SDS011;19359;51.402;6.778;2024-03-07T01:40:45;33.58;;;13.85;;
7783;SDS011;19359;51.402;6.778;2024-03-07T01:43:12;37.35;;;13.32;;
7783;SDS011;19359;51.402;6.778;2024-03-07T01:45:38;31.25;;;13.40;;
7783;SDS011;19359;51.402;6.778;2024-03-07T01:48:05;27.65;;;13.15;;
7783;SDS011;19359;51.402;6.778;2024-03-07T01:50:35;28.33;;;13.68;;
7783;SDS011;19359;51.402;6.778;2024-03-07T01:53:03;29.55;;;13.75;;
7783;SDS011;19359;51.402;6.778;2024-03-07T01:55:31;23.20;;;12.75;;
7783;SDS011;19359;51.402;6.778;2024-03-07T01:58:00;27.55;;;13.65;;
7783;SDS011;19359;51.402;6.778;2024-03-07T02:00:28;28.95;;;14.02;;
7783;SDS011;19359;51.402;6.778;2024-03-07T02:02:56;34.60;;;14.65;;
7783;SDS011;19359;51.402;6.778;2024-03-07T02:05:23;35.33;;;16.17;;
7783;SDS011;19359;51.402;6.778;2024-03-07T02:07:50;47.17;;;17.38;;
7783;SDS011;19359;51.402;6.778;2024-03-07T02:10:17;42.30;;;16.02;;
7783;SDS011;19359;51.402;6.778;2024-03-07T02:12:43;32.55;;;15.57;;
7783;SDS011;19359;51.402;6.778;2024-03-07T02:15:12;41.85;;;16.25;;
7783;SDS011;19359;51.402;6.778;2024-03-07T02:17:39;38.50;;;16.63;;
7783;SDS011;19359;51.402;6.778;2024-03-07T02:20:07;34.75;;;16.10;;
7783;SDS011;19359;51.402;6.778;2024-03-07T02:22:37;42.35;;;17.70;;
7783;SDS011;19359;51.402;6.778;2024-03-07T02:25:04;37.67;;;16.75;;
7783;SDS011;19359;51.402;6.778;2024-03-07T02:27:31;40.45;;;15.63;;
7783;SDS011;19359;51.402;6.778;2024-03-07T02:29:58;40.03;;;18.23;;
7783;SDS011;19359;51.402;6.778;2024-03-07T02:32:25;32.47;;;16.42;;
7783;SDS011;19359;51.402;6.778;2024-03-07T02:34:51;31.40;;;16.25;;
7783;SDS011;19359;51.402;6.778;2024-03-07T02:37:18;39.80;;;17.13;;
7783;SDS011;19359;51.402;6.778;2024-03-07T02:39:46;39.30;;;18.17;;
7783;SDS011;19359;51.402;6.778;2024-03-07T02:42:13;55.20;;;18.15;;
7783;SDS011;19359;51.402;6.778;2024-03-07T02:44:40;42.38;;;15.85;;
7783;SDS011;19359;51.402;6.778;2024-03-07T02:47:07;38.78;;;17.70;;
7783;SDS011;19359;51.402;6.778;2024-03-07T02:49:33;28.83;;;15.95;;
7783;SDS011;19359;51.402;6.778;2024-03-07T02:52:00;47.08;;;15.50;;
7783;SDS011;19359;51.402;6.778;2024-03-07T02:54:27;40.35;;;16.42;;
7783;SDS011;19359;51.402;6.778;2024-03-07T02:56:55;37.95;;;15.50;;
7783;SDS011;19359;51.402;6.778;2024-03-07T02:59:22;31.80;;;16.00;;
7783;SDS011;19359;51.402;6.778;2024-03-07T03:01:49;39.20;;;15.90;;
7783;SDS011;19359;51.402;6.778;2024-03-07T03:04:15;47.15;;;17.33;;
7783;SDS011;19359;51.402;6.778;2024-03-07T03:06:42;39.58;;;16.30;;
7783;SDS011;19359;51.402;6.778;2024-03-07T03:09:09;28.20;;;15.57;;
7783;SDS011;19359;51.402;6.778;2024-03-07T03:11:42;47.67;;;16.67;;
7783;SDS011;19359;51.402;6.778;2024-03-07T03:14:11;39.13;;;14.88;;
7783;SDS011;19359;51.402;6.778;2024-03-07T03:16:40;41.28;;;17.23;;
7783;SDS011;19359;51.402;6.778;2024-03-07T03:19:08;38.10;;;16.65;;
7783;SDS011;19359;51.402;6.778;2024-03-07T03:21:35;48.63;;;18.67;;
7783;SDS011;19359;51.402;6.778;2024-03-07T03:24:01;41.05;;;17.33;;
7783;SDS011;19359;51.402;6.778;2024-03-07T03:26:29;39.00;;;19.10;;
7783;SDS011;19359;51.402;6.778;2024-03-07T03:28:57;31.25;;;14.85;;
7783;SDS011;19359;51.402;6.778;2024-03-07T03:31:25;41.38;;;16.58;;
7783;SDS011;19359;51.402;6.778;2024-03-07T03:33:52;35.08;;;15.32;;
7783;SDS011;19359;51.402;6.778;2024-03-07T03:36:18;39.08;;;17.55;;
7783;SDS011;19359;51.402;6.778;2024-03-07T03:38:45;41.38;;;16.30;;
7783;SDS011;19359;51.402;6.778;2024-03-07T03:41:14;38.20;;;16.42;;
7783;SDS011;19359;51.402;6.778;2024-03-07T03:43:41;34.00;;;16.13;;
7783;SDS011;19359;51.402;6.778;2024-03-07T03:46:09;43.60;;;16.15;;
7783;SDS011;19359;51.402;6.778;2024-03-07T03:48:38;41.80;;;17.33;;
7783;SDS011;19359;51.402;6.778;2024-03-07T03:51:06;45.05;;;17.77;;
7783;SDS011;19359;51.402;6.778;2024-03-07T03:53:33;42.78;;;16.45;;
7783;SDS011;19359;51.402;6.778;2024-03-07T03:56:00;45.05;;;16.90;;
7783;SDS011;19359;51.402;6.778;2024-03-07T03:58:29;29.70;;;14.05;;
7783;SDS011;19359;51.402;6.778;2024-03-07T04:00:56;38.35;;;16.55;;
7783;SDS011;19359;51.402;6.778;2024-03-07T04:03:25;41.03;;;18.83;;
7783;SDS011;19359;51.402;6.778;2024-03-07T04:05:53;39.83;;;17.45;;
7783;SDS011;19359;51.402;6.778;2024-03-07T04:08:21;34.63;;;17.10;;
7783;SDS011;19359;51.402;6.778;2024-03-07T04:10:48;29.63;;;16.15;;
7783;SDS011;19359;51.402;6.778;2024-03-07T04:13:14;37.00;;;15.85;;
7783;SDS011;19359;51.402;6.778;2024-03-07T04:15:41;33.28;;;16.55;;
7783;SDS011;19359;51.402;6.778;2024-03-07T04:18:08;39.45;;;17.00;;
7783;SDS011;19359;51.402;6.778;2024-03-07T04:20:35;39.22;;;16.40;;
7783;SDS011;19359;51.402;6.778;2024-03-07T04:23:03;27.20;;;13.57;;
7783;SDS011;19359;51.402;6.778;2024-03-07T04:25:30;38.75;;;17.63;;
7783;SDS011;19359;51.402;6.778;2024-03-07T04:27:58;35.35;;;14.63;;
7783;SDS011;19359;51.402;6.778;2024-03-07T04:30:25;30.15;;;15.57;;
7783;SDS011;19359;51.402;6.778;2024-03-07T04:32:51;42.22;;;17.92;;
7783;SDS011;19359;51.402;6.778;2024-03-07T04:35:18;33.40;;;14.35;;
7783;SDS011;19359;51.402;6.778;2024-03-07T04:37:46;29.33;;;15.45;;
7783;SDS011;19359;51.402;6.778;2024-03-07T04:40:14;33.35;;;16.33;;
7783;SDS011;19359;51.402;6.778;2024-03-07T04:42:41;35.40;;;17.83;;
7783;SDS011;19359;51.402;6.778;2024-03-07T04:45:09;37.03;;;16.63;;
7783;SDS011;19359;51.402;6.778;2024-03-07T04:47:38;49.88;;;17.10;;
7783;SDS011;19359;51.402;6.778;2024-03-07T04:50:05;31.83;;;16.33;;
7783;SDS011;19359;51.402;6.778;2024-03-07T04:52:32;42.15;;;17.45;;
7783;SDS011;19359;51.402;6.778;2024-03-07T04:54:59;38.40;;;16.98;;
7783;SDS011;19359;51.402;6.778;2024-03-07T04:57:27;44.25;;;15.90;;
7783;SDS011;19359;51.402;6.778;2024-03-07T04:59:54;36.60;;;15.95;;
7783;SDS011;19359;51.402;6.778;2024-03-07T05:02:21;37.22;;;16.30;;
7783;SDS011;19359;51.402;6.778;2024-03-07T05:04:49;40.75;;;16.55;;
7783;SDS011;19359;51.402;6.778;2024-03-07T05:07:16;43.22;;;17.38;;
7783;SDS011;19359;51.402;6.778;2024-03-07T05:09:43;37.40;;;15.43;;
7783;SDS011;19359;51.402;6.778;2024-03-07T05:12:10;35.42;;;16.92;;
7783;SDS011;19359;51.402;6.778;2024-03-07T05:14:39;36.72;;;17.00;;
7783;SDS011;19359;51.402;6.778;2024-03-07T05:17:06;33.05;;;14.82;;
7783;SDS011;19359;51.402;6.778;2024-03-07T05:19:34;32.88;;;16.33;;
7783;SDS011;19359;51.402;6.778;2024-03-07T05:22:01;35.35;;;16.00;;
7783;SDS011;19359;51.402;6.778;2024-03-07T05:24:30;27.42;;;13.75;;
7783;SDS011;19359;51.402;6.778;2024-03-07T05:26:57;34.97;;;16.67;;
7783;SDS011;19359;51.402;6.778;2024-03-07T05:29:24;40.47;;;16.05;;
7783;SDS011;19359;51.402;6.778;2024-03-07T05:31:53;34.95;;;16.08;;
7783;SDS011;19359;51.402;6.778;2024-03-07T05:34:20;37.40;;;14.57;;
7783;SDS011;19359;51.402;6.778;2024-03-07T05:36:48;28.17;;;14.38;;
7783;SDS011;19359;51.402;6.778;2024-03-07T05:39:16;43.67;;;16.90;;
7783;SDS011;19359;51.402;6.778;2024-03-07T05:41:43;37.75;;;15.50;;
7783;SDS011;19359;51.402;6.778;2024-03-07T05:44:11;38.65;;;16.52;;
7783;SDS011;19359;51.402;6.778;2024-03-07T05:46:38;37.20;;;15.80;;
7783;SDS011;19359;51.402;6.778;2024-03-07T05:49:12;37.35;;;16.60;;
7783;SDS011;19359;51.402;6.778;2024-03-07T05:51:39;32.70;;;13.35;;
7783;SDS011;19359;51.402;6.778;2024-03-07T05:54:09;33.00;;;15.60;;
7783;SDS011;19359;51.402;6.778;2024-03-07T05:56:38;30.13;;;14.73;;
7783;SDS011;19359;51.402;6.778;2024-03-07T05:59:05;33.60;;;15.15;;
7783;SDS011;19359;51.402;6.778;2024-03-07T06:01:34;41.13;;;16.67;;
7783;SDS011;19359;51.402;6.778;2024-03-07T06:04:01;31.13;;;14.60;;
7783;SDS011;19359;51.402;6.778;2024-03-07T06:06:32;29.13;;;15.32;;
7783;SDS011;19359;51.402;6.778;2024-03-07T06:09:00;28.40;;;15.00;;
7783;SDS011;19359;51.402;6.778;2024-03-07T06:11:28;34.20;;;14.25;;
7783;SDS011;19359;51.402;6.778;2024-03-07T06:13:55;29.92;;;13.95;;
7783;SDS011;19359;51.402;6.778;2024-03-07T06:16:23;29.02;;;14.68;;
7783;SDS011;19359;51.402;6.778;2024-03-07T06:18:50;48.50;;;15.68;;
7783;SDS011;19359;51.402;6.778;2024-03-07T06:21:17;32.40;;;14.60;;
7783;SDS011;19359;51.402;6.778;2024-03-07T06:23:45;35.95;;;16.67;;
7783;SDS011;19359;51.402;6.778;2024-03-07T06:26:13;30.67;;;15.52;;
7783;SDS011;19359;51.402;6.778;2024-03-07T06:28:42;36.22;;;15.32;;
7783;SDS011;19359;51.402;6.778;2024-03-07T06:31:10;36.92;;;16.88;;
7783;SDS011;19359;51.402;6.778;2024-03-07T06:33:37;33.50;;;15.82;;
7783;SDS011;19359;51.402;6.778;2024-03-07T06:36:04;29.20;;;15.15;;
7783;SDS011;19359;51.402;6.778;2024-03-07T06:38:31;34.95;;;15.57;;
7783;SDS011;19359;51.402;6.778;2024-03-07T06:40:59;29.25;;;14.70;;
7783;SDS011;19359;51.402;6.778;2024-03-07T06:43:25;29.92;;;15.13;;
7783;SDS011;19359;51.402;6.778;2024-03-07T06:45:54;31.70;;;14.93;;
7783;SDS011;19359;51.402;6.778;2024-03-07T06:48:21;37.50;;;15.48;;
7783;SDS011;19359;51.402;6.778;2024-03-07T06:50:48;34.05;;;14.38;;
7783;SDS011;19359;51.402;6.778;2024-03-07T06:53:15;28.38;;;15.80;;
7783;SDS011;19359;51.402;6.778;2024-03-07T06:55:42;33.28;;;14.60;;
7783;SDS011;19359;51.402;6.778;2024-03-07T06:58:10;25.38;;;14.43;;
7783;SDS011;19359;51.402;6.778;2024-03-07T07:00:37;30.23;;;15.07;;
7783;SDS011;19359;51.402;6.778;2024-03-07T07:03:05;30.98;;;14.73;;
7783;SDS011;19359;51.402;6.778;2024-03-07T07:05:33;29.30;;;14.13;;
7783;SDS011;19359;51.402;6.778;2024-03-07T07:08:00;29.38;;;15.25;;
7783;SDS011;19359;51.402;6.778;2024-03-07T07:10:27;33.80;;;15.25;;
7783;SDS011;19359;51.402;6.778;2024-03-07T07:12:54;36.90;;;16.33;;
7783;SDS011;19359;51.402;6.778;2024-03-07T07:15:22;33.42;;;17.13;;
7783;SDS011;19359;51.402;6.778;2024-03-07T07:17:49;26.98;;;15.55;;
7783;SDS011;19359;51.402;6.778;2024-03-07T07:20:17;32.00;;;14.02;;
7783;SDS011;19359;51.402;6.778;2024-03-07T07:22:45;31.02;;;16.67;;
7783;SDS011;19359;51.402;6.778;2024-03-07T07:25:12;32.08;;;14.57;;
7783;SDS011;19359;51.402;6.778;2024-03-07T07:27:43;34.95;;;16.58;;
7783;SDS011;19359;51.402;6.778;2024-03-07T07:30:11;27.45;;;14.35;;
7783;SDS011;19359;51.402;6.778;2024-03-07T07:32:40;28.80;;;13.40;;
7783;SDS011;19359;51.402;6.778;2024-03-07T07:35:08;32.65;;;15.70;;
7783;SDS011;19359;51.402;6.778;2024-03-07T07:37:36;27.75;;;15.43;;
7783;SDS011;19359;51.402;6.778;2024-03-07T07:40:04;30.42;;;13.88;;
7783;SDS011;19359;51.402;6.778;2024-03-07T07:42:33;33.92;;;16.85;;
7783;SDS011;19359;51.402;6.778;2024-03-07T07:45:03;32.05;;;14.40;;
7783;SDS011;19359;51.402;6.778;2024-03-07T07:47:31;31.52;;;17.05;;
7783;SDS011;19359;51.402;6.778;2024-03-07T07:50:04;36.63;;;17.23;;
7783;SDS011;19359;51.402;6.778;2024-03-07T07:52:39;36.42;;;16.83;;
7783;SDS011;19359;51.402;6.778;2024-03-07T07:55:06;34.05;;;15.63;;
7783;SDS011;19359;51.402;6.778;2024-03-07T07:57:39;29.83;;;14.23;;
7783;SDS011;19359;51.402;6.778;2024-03-07T08:00:11;43.03;;;18.90;;
7783;SDS011;19359;51.402;6.778;2024-03-07T08:02:46;39.08;;;16.48;;
7783;SDS011;19359;51.402;6.778;2024-03-07T08:05:18;35.17;;;16.50;;
7783;SDS011;19359;51.402;6.778;2024-03-07T08:07:48;37.08;;;15.32;;
7783;SDS011;19359;51.402;6.778;2024-03-07T08:10:15;40.28;;;17.85;;
7783;SDS011;19359;51.402;6.778;2024-03-07T08:12:43;32.35;;;15.88;;
7783;SDS011;19359;51.402;6.778;2024-03-07T08:15:10;38.97;;;16.55;;
7783;SDS011;19359;51.402;6.778;2024-03-07T08:17:39;33.13;;;14.65;;
7783;SDS011;19359;51.402;6.778;2024-03-07T08:20:10;31.23;;;16.13;;
7783;SDS011;19359;51.402;6.778;2024-03-07T08:22:39;33.70;;;15.70;;
7783;SDS011;19359;51.402;6.778;2024-03-07T08:25:07;32.53;;;15.35;;
7783;SDS011;19359;51.402;6.778;2024-03-07T08:27:35;31.90;;;15.85;;
7783;SDS011;19359;51.402;6.778;2024-03-07T08:30:02;30.10;;;14.88;;
7783;SDS011;19359;51.402;6.778;2024-03-07T08:32:31;26.52;;;14.23;;
7783;SDS011;19359;51.402;6.778;2024-03-07T08:34:59;36.08;;;14.02;;
7783;SDS011;19359;51.402;6.778;2024-03-07T08:37:26;31.83;;;14.15;;
7783;SDS011;19359;51.402;6.778;2024-03-07T08:39:54;21.58;;;11.95;;
7783;SDS011;19359;51.402;6.778;2024-03-07T08:42:21;28.27;;;14.20;;
7783;SDS011;19359;51.402;6.778;2024-03-07T08:44:48;22.88;;;10.13;;
7783;SDS011;19359;51.402;6.778;2024-03-07T08:47:14;11.45;;;7.53;;
7783;SDS011;19359;51.402;6.778;2024-03-07T08:49:42;26.38;;;14.00;;
7783;SDS011;19359;51.402;6.778;2024-03-07T08:52:08;27.25;;;11.85;;
7783;SDS011;19359;51.402;6.778;2024-03-07T08:54:35;20.95;;;11.57;;
7783;SDS011;19359;51.402;6.778;2024-03-07T08:57:03;17.15;;;9.88;;
7783;SDS011;19359;51.402;6.778;2024-03-07T08:59:31;18.85;;;12.35;;
7783;SDS011;19359;51.402;6.778;2024-03-07T09:01:58;23.05;;;12.27;;
7783;SDS011;19359;51.402;6.778;2024-03-07T09:04:26;16.80;;;8.70;;
7783;SDS011;19359;51.402;6.778;2024-03-07T09:06:53;17.65;;;9.68;;
7783;SDS011;19359;51.402;6.778;2024-03-07T09:09:20;19.70;;;11.00;;
7783;SDS011;19359;51.402;6.778;2024-03-07T09:11:47;19.92;;;11.40;;
7783;SDS011;19359;51.402;6.778;2024-03-07T09:14:15;19.17;;;10.07;;
7783;SDS011;19359;51.402;6.778;2024-03-07T09:16:42;16.83;;;8.23;;
7783;SDS011;19359;51.402;6.778;2024-03-07T09:19:09;18.40;;;9.57;;
7783;SDS011;19359;51.402;6.778;2024-03-07T09:21:38;14.63;;;8.07;;
7783;SDS011;19359;51.402;6.778;2024-03-07T09:24:06;18.55;;;9.55;;
7783;SDS011;19359;51.402;6.778;2024-03-07T09:26:33;17.70;;;9.13;;
7783;SDS011;19359;51.402;6.778;2024-03-07T09:29:00;18.67;;;9.32;;
7783;SDS011;19359;51.402;6.778;2024-03-07T09:31:32;17.17;;;8.25;;
7783;SDS011;19359;51.402;6.778;2024-03-07T09:33:59;13.60;;;8.48;;
7783;SDS011;19359;51.402;6.778;2024-03-07T09:36:26;15.77;;;8.75;;
7783;SDS011;19359;51.402;6.778;2024-03-07T09:38:53;13.13;;;8.02;;
7783;SDS011;19359;51.402;6.778;2024-03-07T09:41:19;15.68;;;7.93;;
7783;SDS011;19359;51.402;6.778;2024-03-07T09:43:50;19.30;;;8.77;;
7783;SDS011;19359;51.402;6.778;2024-03-07T09:46:20;13.07;;;6.95;;
7783;SDS011;19359;51.402;6.778;2024-03-07T09:48:49;20.05;;;9.32;;
7783;SDS011;19359;51.402;6.778;2024-03-07T09:51:18;15.15;;;8.10;;
7783;SDS011;19359;51.402;6.778;2024-03-07T09:53:46;11.55;;;6.68;;
7783;SDS011;19359;51.402;6.778;2024-03-07T09:56:16;13.35;;;8.55;;
7783;SDS011;19359;51.402;6.778;2024-03-07T09:58:45;15.93;;;8.00;;
7783;SDS011;19359;51.402;6.778;2024-03-07T10:01:15;24.15;;;9.65;;
7783;SDS011;19359;51.402;6.778;2024-03-07T10:03:42;12.38;;;8.45;;
7783;SDS011;19359;51.402;6.778;2024-03-07T10:06:12;14.23;;;7.13;;
7783;SDS011;19359;51.402;6.778;2024-03-07T10:08:39;16.70;;;9.20;;
7783;SDS011;19359;51.402;6.778;2024-03-07T10:11:08;16.95;;;8.50;;
7783;SDS011;19359;51.402;6.778;2024-03-07T10:13:35;16.08;;;9.23;;
7783;SDS011;19359;51.402;6.778;2024-03-07T10:16:03;16.27;;;8.65;;
7783;SDS011;19359;51.402;6.778;2024-03-07T10:18:31;17.73;;;8.07;;
7783;SDS011;19359;51.402;6.778;2024-03-07T10:20:58;18.08;;;8.38;;
7783;SDS011;19359;51.402;6.778;2024-03-07T10:23:26;8.43;;;5.65;;
7783;SDS011;19359;51.402;6.778;2024-03-07T10:25:53;12.38;;;7.57;;
7783;SDS011;19359;51.402;6.778;2024-03-07T10:28:20;14.15;;;8.43;;
7783;SDS011;19359;51.402;6.778;2024-03-07T10:30:47;12.35;;;7.65;;
7783;SDS011;19359;51.402;6.778;2024-03-07T10:33:15;13.48;;;8.30;;
7783;SDS011;19359;51.402;6.778;2024-03-07T10:35:46;16.25;;;8.50;;
7783;SDS011;19359;51.402;6.778;2024-03-07T10:38:14;19.33;;;8.70;;
7783;SDS011;19359;51.402;6.778;2024-03-07T10:40:45;14.20;;;7.93;;
7783;SDS011;19359;51.402;6.778;2024-03-07T10:43:14;14.55;;;7.70;;
7783;SDS011;19359;51.402;6.778;2024-03-07T10:45:45;14.45;;;7.05;;
7783;SDS011;19359;51.402;6.778;2024-03-07T10:48:13;15.25;;;8.88;;
7783;SDS011;19359;51.402;6.778;2024-03-07T10:50:43;16.33;;;8.57;;
7783;SDS011;19359;51.402;6.778;2024-03-07T10:53:24;14.93;;;7.97;;
7783;SDS011;19359;51.402;6.778;2024-03-07T10:58:57;18.05;;;8.20;;
7783;SDS011;19359;51.402;6.778;2024-03-07T11:01:29;13.52;;;8.40;;
7783;SDS011;19359;51.402;6.778;2024-03-07T11:03:58;13.77;;;8.48;;
7783;SDS011;19359;51.402;6.778;2024-03-07T11:06:29;15.10;;;7.93;;
7783;SDS011;19359;51.402;6.778;2024-03-07T11:08:58;17.10;;;7.72;;
7783;SDS011;19359;51.402;6.778;2024-03-07T11:11:36;16.33;;;7.80;;
7783;SDS011;19359;51.402;6.778;2024-03-07T11:14:05;13.93;;;8.38;;
7783;SDS011;19359;51.402;6.778;2024-03-07T11:16:35;12.60;;;7.43;;
7783;SDS011;19359;51.402;6.778;2024-03-07T11:19:17;13.23;;;7.90;;
7783;SDS011;19359;51.402;6.778;2024-03-07T11:21:45;11.60;;;7.68;;
7783;SDS011;19359;51.402;6.778;2024-03-07T11:24:22;13.77;;;7.78;;
7783;SDS011;19359;51.402;6.778;2024-03-07T11:26:52;19.27;;;8.20;;
7783;SDS011;19359;51.402;6.778;2024-03-07T11:32:17;12.52;;;6.00;;
7783;SDS011;19359;51.402;6.778;2024-03-07T11:34:46;17.83;;;8.68;;
7783;SDS011;19359;51.402;6.778;2024-03-07T11:37:17;13.30;;;7.63;;
7783;SDS011;19359;51.402;6.778;2024-03-07T11:39:47;11.10;;;7.90;;
7783;SDS011;19359;51.402;6.778;2024-03-07T11:42:21;12.48;;;7.75;;
7783;SDS011;19359;51.402;6.778;2024-03-07T11:44:50;17.58;;;8.40;;
7783;SDS011;19359;51.402;6.778;2024-03-07T11:47:17;12.35;;;7.35;;
7783;SDS011;19359;51.402;6.778;2024-03-07T11:49:44;9.35;;;7.30;;
7783;SDS011;19359;51.402;6.778;2024-03-07T11:52:13;12.88;;;7.25;;
7783;SDS011;19359;51.402;6.778;2024-03-07T11:54:41;15.18;;;7.55;;
7783;SDS011;19359;51.402;6.778;2024-03-07T11:57:12;15.07;;;7.88;;
7783;SDS011;19359;51.402;6.778;2024-03-07T11:59:40;11.95;;;8.38;;
7783;SDS011;19359;51.402;6.778;2024-03-07T12:02:10;18.77;;;8.43;;
7783;SDS011;19359;51.402;6.778;2024-03-07T12:04:38;14.10;;;7.97;;
7783;SDS011;19359;51.402;6.778;2024-03-07T12:07:05;12.02;;;8.10;;
7783;SDS011;19359;51.402;6.778;2024-03-07T12:09:35;15.77;;;8.40;;
7783;SDS011;19359;51.402;6.778;2024-03-07T12:12:03;14.13;;;8.30;;
7783;SDS011;19359;51.402;6.778;2024-03-07T12:14:30;17.77;;;9.38;;
7783;SDS011;19359;51.402;6.778;2024-03-07T12:17:00;10.18;;;8.05;;
7783;SDS011;19359;51.402;6.778;2024-03-07T12:19:29;15.57;;;9.00;;
7783;SDS011;19359;51.402;6.778;2024-03-07T12:21:57;16.25;;;9.18;;
7783;SDS011;19359;51.402;6.778;2024-03-07T12:24:26;14.25;;;8.30;;
7783;SDS011;19359;51.402;6.778;2024-03-07T12:26:52;16.05;;;8.77;;
7783;SDS011;19359;51.402;6.778;2024-03-07T12:29:30;13.95;;;8.82;;
7783;SDS011;19359;51.402;6.778;2024-03-07T12:31:56;10.98;;;8.05;;
7783;SDS011;19359;51.402;6.778;2024-03-07T12:34:25;13.10;;;7.65;;
7783;SDS011;19359;51.402;6.778;2024-03-07T12:36:55;14.07;;;8.65;;
7783;SDS011;19359;51.402;6.778;2024-03-07T12:39:22;14.27;;;7.88;;
7783;SDS011;19359;51.402;6.778;2024-03-07T12:41:55;16.17;;;8.25;;
7783;SDS011;19359;51.402;6.778;2024-03-07T12:44:22;11.70;;;8.63;;
7783;SDS011;19359;51.402;6.778;2024-03-07T12:46:50;10.55;;;7.40;;
7783;SDS011;19359;51.402;6.778;2024-03-07T12:49:18;14.25;;;8.40;;
7783;SDS011;19359;51.402;6.778;2024-03-07T12:51:46;12.98;;;7.90;;
7783;SDS011;19359;51.402;6.778;2024-03-07T12:54:15;14.98;;;9.23;;
7783;SDS011;19359;51.402;6.778;2024-03-07T12:56:42;16.52;;;8.18;;
7783;SDS011;19359;51.402;6.778;2024-03-07T12:59:09;12.93;;;8.15;;
7783;SDS011;19359;51.402;6.778;2024-03-07T13:01:36;11.05;;;7.50;;
7783;SDS011;19359;51.402;6.778;2024-03-07T13:04:04;15.13;;;9.45;;
7783;SDS011;19359;51.402;6.778;2024-03-07T13:06:33;14.55;;;9.40;;
7783;SDS011;19359;51.402;6.778;2024-03-07T13:09:01;15.57;;;8.57;;
7783;SDS011;19359;51.402;6.778;2024-03-07T13:11:28;11.82;;;8.35;;
7783;SDS011;19359;51.402;6.778;2024-03-07T13:13:57;18.20;;;8.30;;
7783;SDS011;19359;51.402;6.778;2024-03-07T13:16:24;9.65;;;7.32;;
7783;SDS011;19359;51.402;6.778;2024-03-07T13:18:52;18.15;;;8.85;;
7783;SDS011;19359;51.402;6.778;2024-03-07T13:21:19;12.32;;;8.70;;
7783;SDS011;19359;51.402;6.778;2024-03-07T13:23:46;14.52;;;8.77;;
7783;SDS011;19359;51.402;6.778;2024-03-07T13:26:14;10.77;;;7.60;;
7783;SDS011;19359;51.402;6.778;2024-03-07T13:28:49;15.73;;;9.13;;
7783;SDS011;19359;51.402;6.778;2024-03-07T13:31:16;11.63;;;8.13;;
7783;SDS011;19359;51.402;6.778;2024-03-07T13:33:43;11.23;;;7.55;;
7783;SDS011;19359;51.402;6.778;2024-03-07T13:36:10;13.80;;;9.00;;
7783;SDS011;19359;51.402;6.778;2024-03-07T13:38:36;11.20;;;6.97;;
7783;SDS011;19359;51.402;6.778;2024-03-07T13:41:03;12.57;;;7.68;;
7783;SDS011;19359;51.402;6.778;2024-03-07T13:43:31;13.40;;;6.68;;
7783;SDS011;19359;51.402;6.778;2024-03-07T13:45:59;10.93;;;7.75;;
7783;SDS011;19359;51.402;6.778;2024-03-07T13:48:26;12.30;;;8.73;;
7783;SDS011;19359;51.402;6.778;2024-03-07T13:50:52;8.88;;;6.32;;
7783;SDS011;19359;51.402;6.778;2024-03-07T13:53:19;13.25;;;7.78;;
7783;SDS011;19359;51.402;6.778;2024-03-07T13:56:03;10.00;;;7.50;;
7783;SDS011;19359;51.402;6.778;2024-03-07T13:59:01;9.40;;;6.65;;
7783;SDS011;19359;51.402;6.778;2024-03-07T14:01:48;10.27;;;7.15;;
7783;SDS011;19359;51.402;6.778;2024-03-07T14:04:34;12.25;;;6.97;;
7783;SDS011;19359;51.402;6.778;2024-03-07T14:07:22;11.45;;;6.90;;
7783;SDS011;19359;51.402;6.778;2024-03-07T14:10:16;9.95;;;7.40;;
7783;SDS011;19359;51.402;6.778;2024-03-07T14:13:09;8.98;;;6.43;;
7783;SDS011;19359;51.402;6.778;2024-03-07T14:16:12;11.38;;;7.57;;
7783;SDS011;19359;51.402;6.778;2024-03-07T14:22:03;9.60;;;6.28;;
7783;SDS011;19359;51.402;6.778;2024-03-07T14:28:05;10.65;;;6.35;;
7783;SDS011;19359;51.402;6.778;2024-03-07T14:30:41;7.40;;;5.32;;
7783;SDS011;19359;51.402;6.778;2024-03-07T14:33:20;8.43;;;5.28;;
7783;SDS011;19359;51.402;6.778;2024-03-07T14:35:59;5.03;;;4.45;;
7783;SDS011;19359;51.402;6.778;2024-03-07T14:38:37;9.80;;;4.65;;
7783;SDS011;19359;51.402;6.778;2024-03-07T14:41:10;5.93;;;4.28;;
7783;SDS011;19359;51.402;6.778;2024-03-07T14:43:40;9.02;;;5.68;;
7783;SDS011;19359;51.402;6.778;2024-03-07T14:46:07;4.30;;;3.90;;
7783;SDS011;19359;51.402;6.778;2024-03-07T14:48:36;7.75;;;5.38;;
7783;SDS011;19359;51.402;6.778;2024-03-07T14:51:03;6.15;;;4.25;;
7783;SDS011;19359;51.402;6.778;2024-03-07T14:53:32;11.15;;;5.30;;
7783;SDS011;19359;51.402;6.778;2024-03-07T14:55:59;7.97;;;5.13;;
7783;SDS011;19359;51.402;6.778;2024-03-07T14:58:26;5.75;;;4.10;;
7783;SDS011;19359;51.402;6.778;2024-03-07T15:00:53;4.30;;;3.90;;